Main page
METAR-TAF:

METAR-TAF

Airports :

Pardubice Airport

Pardubice, Czech Republic

latitude: 50-00-48N, longitude: 15-44-19E, elevation: 226 m

Current weather observation

The report was made 1 hour and 8 minutes ago, at 18:00 UTC
Wind 5 kt from the West
Temperature 9°C
Humidity 93%
Pressure 1027 hPa
Visibility 10 km or more
Overcast at a height of 3000 ft

METAR: LKPD 131800Z 27005KT 9999 OVC030 09/08 Q1027 RMK BLACK

Time: 20:08 (19:08 UTC)


TAF: missing

Weather observations and forecasts of more than 4000 airports (METAR and TAF reports).

The available stations are represented by yellow and red dots on the map.

Hover mouse over dot to see the name of the station.

Then click to see weather observations and forecasts.

To change the map : click on the green buttons with a black cross to zoom in, on the green button with a dash to zoom out, or on the green arrows for adjacent maps.


METAR-TAF: